| time (UTC) | temp F | wind direction | speed MPH | gust MPH | rain 1hr in | rain 24hr in | rain mn in | humidity % | barometer mb |
| 20260507215518 | 56 | 0.0 | 0.0 | 0.00 | 0.02 | 0.02 | 73 | 1013.0 | |
| 20260507214518 | 57 | 0.0 | 0.0 | 0.00 | 0.02 | 0.02 | 72 | 1013.0 | |
| 20260507213518 | 57 | 0.0 | 0.0 | 0.00 | 0.02 | 0.02 | 71 | 1013.1 | |
| 20260507211518 | 58 | 0.0 | 0.0 | 0.00 | 0.02 | 0.02 | 69 | 1013.0 | |
| 20260507210538 | 59 | 0.0 | 0.0 | 0.00 | 0.02 | 0.02 | 67 | 1013.1 | |
| 20260507204518 | 60 | 0.0 | 1.0 | 0.00 | 0.02 | 0.02 | 64 | 1013.2 | |
| 20260507203517 | 61 | 0.0 | 6.0 | 0.00 | 0.02 | 0.02 | 61 | 1013.3 | |
| 20260507202518 | 61 | 113 | 1.0 | 11.0 | 0.00 | 0.02 | 0.02 | 61 | 1013.1 |
| 20260507201517 | 61 | 113 | 1.0 | 9.0 | 0.00 | 0.02 | 0.02 | 62 | 1013.1 |
| 20260507200518 | 61 | 0 | 1.0 | 5.0 | 0.00 | 0.02 | 0.02 | 63 | 1013.5 |
| 20260507195519 | 61 | 0 | 1.0 | 9.0 | 0.00 | 0.02 | 0.02 | 63 | 1013.3 |
| 20260507194518 | 61 | 113 | 4.0 | 11.0 | 0.00 | 0.03 | 0.02 | 65 | 1013.3 |
| 20260507193537 | 59 | 113 | 1.0 | 10.0 | 0.00 | 0.03 | 0.02 | 67 | 1013.2 |
| 20260507191517 | 59 | 0.0 | 0.0 | 0.00 | 0.03 | 0.02 | 66 | 1013.1 | |
| 20260507190519 | 60 | 0.0 | 0.0 | 0.00 | 0.04 | 0.02 | 64 | 1013.1 | |
| 20260507184518 | 61 | 338 | 1.0 | 13.0 | 0.00 | 0.04 | 0.02 | 61 | 1013.1 |
| 20260507183517 | 61 | 0.0 | 0.0 | 0.00 | 0.04 | 0.02 | 61 | 1012.9 | |
| 20260507182517 | 62 | 0.0 | 0.0 | 0.00 | 0.04 | 0.02 | 59 | 1012.9 | |
| 20260507181517 | 63 | 0.0 | 0.0 | 0.00 | 0.04 | 0.02 | 57 | 1013.1 | |
| 20260507180517 | 63 | 0.0 | 0.0 | 0.00 | 0.04 | 0.02 | 55 | 1012.8 | |
| 20260507175517 | 64 | 0.0 | 0.0 | 0.00 | 0.04 | 0.02 | 52 | 1012.6 | |
| 20260507174517 | 66 | 0.0 | 0.0 | 0.00 | 0.04 | 0.02 | 50 | 1012.6 | |
| 20260507173517 | 66 | 0.0 | 0.0 | 0.00 | 0.04 | 0.02 | 48 | 1012.4 | |
| 20260507171517 | 68 | 0.0 | 0.0 | 0.00 | 0.04 | 0.02 | 46 | 1012.4 | |
| 20260507170517 | 68 | 0.0 | 0.0 | 0.00 | 0.04 | 0.02 | 48 | 1012.5 | |
| 20260507165517 | 68 | 0.0 | 0.0 | 0.00 | 0.04 | 0.02 | 46 | 1012.4 | |
| 20260507164517 | 68 | 0.0 | 0.0 | 0.00 | 0.04 | 0.02 | 44 | 1012.4 | |
| 20260507163517 | 68 | 0.0 | 0.0 | 0.00 | 0.04 | 0.02 | 46 | 1012.4 | |
| 20260507162517 | 67 | 0.0 | 0.0 | 0.00 | 0.04 | 0.02 | 44 | 1012.5 | |
| 20260507161517 | 68 | 0.0 | 0.0 | 0.00 | 0.04 | 0.02 | 48 | 1012.5 | |
| 20260507160537 | 68 | 0.0 | 0.0 | 0.00 | 0.04 | 0.02 | 46 | 1012.5 | |
| 20260507155517 | 69 | 0.0 | 0.0 | 0.00 | 0.04 | 0.02 | 48 | 1012.6 | |
| 20260507154517 | 70 | 0.0 | 0.0 | 0.00 | 0.04 | 0.02 | 46 | 1012.6 | |
| 20260507153517 | 71 | 0.0 | 0.0 | 0.00 | 0.04 | 0.02 | 42 | 1012.5 | |
| 20260507151517 | 70 | 0.0 | 5.0 | 0.00 | 0.04 | 0.02 | 43 | 1012.6 | |
| 20260507150517 | 70 | 0.0 | 0.0 | 0.00 | 0.04 | 0.02 | 47 | 1012.8 | |
| 20260507144517 | 69 | 0.0 | 0.0 | 0.00 | 0.04 | 0.02 | 48 | 1013.0 | |
| 20260507143517 | 70 | 0.0 | 0.0 | 0.00 | 0.04 | 0.02 | 44 | 1013.1 | |
| 20260507142516 | 70 | 0.0 | 0.0 | 0.00 | 0.04 | 0.02 | 48 | 1013.0 | |
| 20260507141537 | 71 | 0.0 | 0.0 | 0.00 | 0.04 | 0.02 | 45 | 1013.1 | |
| 20260507140517 | 71 | 0.0 | 1.0 | 0.00 | 0.04 | 0.02 | 45 | 1013.2 | |
| 20260507135516 | 72 | 0.0 | 2.0 | 0.00 | 0.04 | 0.02 | 42 | 1013.2 | |
| 20260507134537 | 71 | 0.0 | 2.0 | 0.00 | 0.04 | 0.02 | 46 | 1013.3 | |
| 20260507133516 | 71 | 0.0 | 5.0 | 0.00 | 0.04 | 0.02 | 45 | 1013.6 | |
| 20260507132517 | 70 | 0.0 | 0.0 | 0.00 | 0.04 | 0.02 | 46 | 1013.7 | |
| 20260507131537 | 70 | 0.0 | 2.0 | 0.00 | 0.04 | 0.02 | 44 | 1013.7 | |
| 20260507130516 | 69 | 0.0 | 0.0 | 0.00 | 0.04 | 0.02 | 47 | 1013.7 | |
| 20260507124517 | 69 | 0.0 | 0.0 | 0.00 | 0.04 | 0.02 | 46 | 1013.6 | |
| 20260507123516 | 69 | 0.0 | 0.0 | 0.00 | 0.04 | 0.02 | 44 | 1013.6 | |
| 20260507122516 | 69 | 0.0 | 2.0 | 0.00 | 0.04 | 0.02 | 43 | 1013.6 | |
| 20260507121536 | 69 | 0.0 | 4.0 | 0.00 | 0.04 | 0.02 | 44 | 1013.6 | |
| 20260507120516 | 68 | 0.0 | 1.0 | 0.00 | 0.04 | 0.02 | 50 | 1013.6 | |
| 20260507115517 | 70 | 203 | 1.0 | 7.0 | 0.00 | 0.04 | 0.02 | 46 | 1013.6 |
| 20260507114536 | 70 | 113 | 1.0 | 8.0 | 0.00 | 0.04 | 0.02 | 47 | 1013.6 |
| 20260507113516 | 70 | 113 | 2.0 | 12.0 | 0.00 | 0.04 | 0.02 | 48 | 1013.8 |
| 20260507111516 | 68 | 0.0 | 0.0 | 0.00 | 0.04 | 0.02 | 55 | 1013.9 | |
| 20260507110518 | 68 | 180 | 1.0 | 6.0 | 0.00 | 0.04 | 0.02 | 53 | 1014.1 |
| 20260507105518 | 67 | 0.0 | 4.0 | 0.00 | 0.04 | 0.02 | 56 | 1014.2 | |
| 20260507104518 | 67 | 0.0 | 1.0 | 0.00 | 0.04 | 0.02 | 57 | 1014.2 | |
| 20260507103518 | 66 | 113 | 1.0 | 7.0 | 0.00 | 0.04 | 0.02 | 57 | 1014.2 |
| 20260507101538 | 66 | 0.0 | 4.0 | 0.00 | 0.04 | 0.02 | 58 | 1014.2 | |
| 20260507100518 | 66 | 0.0 | 2.0 | 0.00 | 0.04 | 0.02 | 59 | 1014.4 | |
| 20260507095518 | 65 | 0.0 | 0.0 | 0.00 | 0.04 | 0.02 | 59 | 1014.4 | |
| 20260507094518 | 64 | 0.0 | 5.0 | 0.00 | 0.04 | 0.02 | 61 | 1014.4 | |
| 20260507093518 | 64 | 0.0 | 0.0 | 0.00 | 0.04 | 0.02 | 64 | 1014.4 | |
| 20260507092518 | 65 | 0.0 | 2.0 | 0.00 | 0.04 | 0.02 | 61 | 1014.4 | |
| 20260507091518 | 65 | 0.0 | 5.0 | 0.00 | 0.04 | 0.02 | 62 | 1014.4 | |
| 20260507090518 | 63 | 135 | 1.0 | 13.0 | 0.00 | 0.04 | 0.02 | 65 | 1014.5 |
| 20260507085618 | 63 | 113 | 1.0 | 9.0 | 0.00 | 0.04 | 0.02 | 66 | 1014.3 |
| 20260507084518 | 62 | 0.0 | 0.0 | 0.00 | 0.04 | 0.02 | 70 | 1014.3 | |
| 20260507083518 | 61 | 0.0 | 0.0 | 0.00 | 0.04 | 0.02 | 75 | 1014.6 | |
| 20260507081519 | 59 | 0.0 | 0.0 | 0.00 | 0.04 | 0.02 | 77 | 1014.5 | |
| 20260507080518 | 59 | 0.0 | 4.0 | 0.00 | 0.04 | 0.02 | 77 | 1014.2 | |
| 20260507075518 | 59 | 0.0 | 0.0 | 0.00 | 0.04 | 0.02 | 77 | 1014.2 | |
| 20260507074518 | 59 | 0.0 | 1.0 | 0.00 | 0.04 | 0.02 | 76 | 1014.2 | |
| 20260507073518 | 59 | 0.0 | 0.0 | 0.00 | 0.04 | 0.02 | 77 | 1014.1 | |
| 20260507071518 | 59 | 0.0 | 0.0 | 0.00 | 0.04 | 0.02 | 77 | 1014.3 | |
| 20260507070537 | 59 | 0.0 | 0.0 | 0.00 | 0.04 | 0.02 | 78 | 1013.9 | |
| 20260507065517 | 58 | 0.0 | 5.0 | 0.00 | 0.04 | 0.02 | 78 | 1013.8 | |
| 20260507064517 | 59 | 113 | 1.0 | 5.0 | 0.00 | 0.04 | 0.02 | 79 | 1013.8 |
| 20260507063518 | 58 | 0.0 | 3.0 | 0.00 | 0.04 | 0.02 | 83 | 1013.8 | |
| 20260507061518 | 57 | 0.0 | 3.0 | 0.00 | 0.04 | 0.02 | 85 | 1013.8 | |
| 20260507060517 | 56 | 0.0 | 0.0 | 0.00 | 0.04 | 0.02 | 86 | 1013.7 | |
| 20260507055517 | 56 | 113 | 1.0 | 6.0 | 0.00 | 0.04 | 0.02 | 87 | 1013.7 |
| 20260507054538 | 55 | 0.0 | 4.0 | 0.00 | 0.04 | 0.02 | 87 | 1013.6 | |
| 20260507053517 | 56 | 0.0 | 5.0 | 0.00 | 0.04 | 0.02 | 87 | 1013.7 | |
| 20260507052538 | 55 | 0.0 | 4.0 | 0.00 | 0.04 | 0.02 | 88 | 1013.7 | |
| 20260507051537 | 55 | 0.0 | 0.0 | 0.00 | 0.04 | 0.02 | 88 | 1013.8 | |
| 20260507050517 | 55 | 0.0 | 0.0 | 0.00 | 0.04 | 0.02 | 89 | 1013.6 | |
| 20260507044517 | 55 | 0.0 | 10.0 | 0.00 | 0.04 | 0.02 | 90 | 1013.5 | |
| 20260507043537 | 55 | 0.0 | 4.0 | 0.00 | 0.04 | 0.02 | 90 | 1013.4 | |
| 20260507042537 | 55 | 113 | 2.0 | 11.0 | 0.00 | 0.04 | 0.02 | 90 | 1013.3 |
| 20260507041517 | 55 | 0.0 | 0.0 | 0.00 | 0.04 | 0.02 | 90 | 1013.3 | |
| 20260507040537 | 55 | 113 | 3.0 | 16.0 | 0.00 | 0.04 | 0.02 | 90 | 1013.0 |
| 20260507034517 | 55 | 158 | 1.0 | 12.0 | 0.00 | 0.04 | 0.02 | 90 | 1013.0 |
| 20260507033537 | 55 | 0.0 | 7.0 | 0.00 | 0.04 | 0.02 | 90 | 1012.9 | |
| 20260507032518 | 55 | 0.0 | 0.0 | 0.00 | 0.04 | 0.02 | 90 | 1012.9 | |
| 20260507031517 | 55 | 0.0 | 6.0 | 0.00 | 0.04 | 0.02 | 90 | 1012.9 | |
| 20260507030517 | 55 | 0.0 | 0.0 | 0.01 | 0.04 | 0.02 | 91 | 1012.9 | |
| 20260507025537 | 55 | 113 | 2.0 | 12.0 | 0.01 | 0.04 | 0.02 | 91 | 1013.0 |
| 20260507024517 | 55 | 90 | 1.0 | 7.0 | 0.01 | 0.04 | 0.02 | 91 | 1013.0 |
| 20260507023517 | 55 | 0.0 | 8.0 | 0.01 | 0.04 | 0.02 | 91 | 1013.1 | |
| 20260507021517 | 55 | 0.0 | 0.0 | 0.02 | 0.04 | 0.02 | 90 | 1013.1 | |
| 20260507020517 | 55 | 0.0 | 4.0 | 0.01 | 0.03 | 0.01 | 90 | 1012.9 | |
| 20260507014517 | 55 | 68 | 1.0 | 19.0 | 0.01 | 0.03 | 0.01 | 89 | 1012.6 |
| 20260507013517 | 56 | 0.0 | 2.0 | 0.01 | 0.03 | 0.01 | 89 | 1012.8 | |
| 20260507011517 | 56 | 0.0 | 0.0 | 0.00 | 0.02 | 0.00 | 89 | 1012.9 | |
| 20260507010517 | 56 | 0.0 | 0.0 | 0.00 | 0.02 | 0.00 | 89 | 1012.9 | |
| 20260507004517 | 56 | 113 | 1.0 | 11.0 | 0.00 | 0.02 | 0.00 | 88 | 1013.0 |
| 20260507003517 | 56 | 90 | 1.0 | 10.0 | 0.00 | 0.02 | 0.00 | 88 | 1013.0 |
| 20260507001557 | 56 | 0.0 | 7.0 | 0.00 | 0.02 | 0.00 | 88 | 1012.8 | |
| 20260507000517 | 56 | 90 | 1.0 | 15.0 | 0.00 | 0.02 | 0.00 | 88 | 1012.7 |
| 20260506234517 | 56 | 0.0 | 4.0 | 0.00 | 0.02 | 0.00 | 88 | 1013.0 | |
| 20260506233517 | 56 | 0.0 | 6.0 | 0.00 | 0.02 | 0.00 | 88 | 1012.9 | |
| 20260506231537 | 56 | 0.0 | 7.0 | 0.00 | 0.02 | 0.00 | 88 | 1012.8 | |
| 20260506230516 | 56 | 113 | 1.0 | 11.0 | 0.00 | 0.02 | 0.00 | 88 | 1013.1 |
| 20260506225516 | 56 | 0.0 | 9.0 | 0.00 | 0.02 | 0.00 | 88 | 1013.2 | |
| 20260506224536 | 56 | 113 | 1.0 | 10.0 | 0.00 | 0.02 | 0.00 | 88 | 1013.2 |
| 20260506223516 | 56 | 0.0 | 4.0 | 0.00 | 0.02 | 0.00 | 87 | 1013.3 | |
| 20260506222517 | 56 | 0.0 | 2.0 | 0.00 | 0.02 | 0.00 | 87 | 1013.4 | |
| 20260506221516 | 56 | 0.0 | 0.0 | 0.00 | 0.02 | 0.00 | 86 | 1013.4 | |
| 20260506220517 | 56 | 0.0 | 4.0 | 0.00 | 0.02 | 0.00 | 85 | 1013.1 |